createdAt,value
2017-09-14T00:00:18.168Z,7.43
2017-09-14T00:02:46.428Z,5.90
2017-09-14T00:05:14.680Z,10.80
2017-09-14T00:07:42.188Z,8.40
2017-09-14T00:10:09.665Z,9.60
2017-09-14T00:12:37.161Z,9.70
2017-09-14T00:15:04.644Z,13.50
2017-09-14T00:17:33.661Z,5.03
2017-09-14T00:20:01.164Z,10.03
2017-09-14T00:22:28.645Z,8.07
2017-09-14T00:24:56.352Z,12.40
2017-09-14T00:27:23.836Z,7.60
2017-09-14T00:29:51.342Z,7.03
2017-09-14T00:32:18.824Z,10.03
2017-09-14T00:34:46.330Z,13.70
2017-09-14T00:37:13.821Z,8.73
2017-09-14T00:39:41.422Z,9.97
2017-09-14T00:42:08.914Z,14.93
2017-09-14T00:44:37.160Z,17.60
2017-09-14T00:47:04.668Z,11.20
2017-09-14T00:49:32.149Z,9.83
2017-09-14T00:51:59.645Z,8.17
2017-09-14T00:54:27.168Z,13.87
2017-09-14T00:56:54.713Z,10.57
2017-09-14T00:59:22.261Z,14.93
2017-09-14T01:01:49.805Z,11.03
2017-09-14T01:04:17.309Z,16.20
2017-09-14T01:06:44.796Z,10.63
2017-09-14T01:09:12.296Z,7.60
2017-09-14T01:11:39.777Z,13.03
2017-09-14T01:14:25.113Z,10.70
2017-09-14T01:16:53.371Z,12.43
2017-09-14T01:19:21.641Z,11.23
2017-09-14T01:21:49.889Z,8.30
2017-09-14T01:24:18.136Z,9.43
2017-09-14T01:26:45.637Z,13.57
2017-09-14T01:29:14.803Z,13.30
2017-09-14T01:31:43.073Z,13.30
2017-09-14T01:34:10.554Z,14.13
2017-09-14T01:36:38.060Z,13.13
2017-09-14T01:39:05.549Z,11.50
2017-09-14T01:41:33.053Z,11.33
2017-09-14T01:44:01.338Z,11.93
2017-09-14T01:46:28.840Z,17.33
2017-09-14T01:48:56.329Z,7.40
2017-09-14T01:51:23.810Z,11.07
2017-09-14T01:53:51.312Z,10.53
2017-09-14T01:56:18.792Z,13.33
2017-09-14T01:58:46.301Z,17.87
2017-09-14T02:01:13.789Z,18.60
2017-09-14T02:03:41.289Z,14.23
2017-09-14T02:06:08.770Z,13.87
2017-09-14T02:08:36.264Z,8.47
2017-09-14T02:11:03.752Z,14.60
2017-09-14T02:13:31.261Z,16.97
2017-09-14T02:15:58.748Z,16.00
2017-09-14T02:18:26.253Z,14.20
2017-09-14T02:20:53.738Z,13.50
2017-09-14T02:23:21.229Z,16.53
2017-09-14T02:25:48.728Z,13.70
2017-09-14T02:28:16.213Z,20.37
2017-09-14T02:30:43.717Z,16.60
2017-09-14T02:33:11.967Z,9.33
2017-09-14T02:35:40.248Z,21.13
2017-09-14T02:38:07.746Z,13.53
2017-09-14T02:40:35.236Z,13.27
2017-09-14T02:43:02.741Z,10.90
2017-09-14T02:45:30.234Z,13.30
2017-09-14T02:47:57.738Z,8.13
2017-09-14T02:50:26.026Z,11.00
2017-09-14T02:52:53.536Z,15.23
2017-09-14T02:55:21.797Z,17.37
2017-09-14T02:57:49.372Z,18.37
2017-09-14T03:00:16.857Z,14.60
2017-09-14T03:02:44.369Z,13.30
2017-09-14T03:05:11.865Z,10.60
2017-09-14T03:07:39.358Z,15.87
2017-09-14T03:10:06.860Z,15.40
2017-09-14T03:12:35.113Z,11.07
2017-09-14T03:15:02.626Z,15.73
2017-09-14T03:17:30.113Z,17.23
2017-09-14T03:19:58.381Z,14.50
2017-09-14T03:22:26.657Z,9.00
2017-09-14T03:24:54.166Z,8.37
2017-09-14T03:27:21.650Z,12.80
2017-09-14T03:29:49.933Z,11.67
2017-09-14T03:32:17.423Z,12.97
2017-09-14T03:34:44.918Z,17.10
2017-09-14T03:37:12.421Z,10.10
2017-09-14T03:39:40.687Z,12.17
2017-09-14T03:42:08.962Z,8.87
2017-09-14T03:44:36.466Z,15.57
2017-09-14T03:47:03.977Z,13.10
2017-09-14T03:49:31.465Z,13.10
2017-09-14T03:51:59.053Z,18.57
2017-09-14T03:54:26.589Z,10.93
2017-09-14T03:56:54.112Z,21.10
2017-09-14T03:59:22.365Z,26.27
2017-09-14T04:01:50.626Z,22.90
2017-09-14T04:04:18.897Z,15.70
2017-09-14T04:06:47.154Z,14.53
2017-09-14T04:09:15.427Z,14.50
2017-09-14T04:11:42.919Z,12.57
2017-09-14T04:14:10.755Z,11.70
2017-09-14T04:16:38.240Z,14.97
2017-09-14T04:19:05.843Z,15.93
2017-09-14T04:21:33.341Z,10.73
2017-09-14T04:24:01.720Z,13.90
2017-09-14T04:26:29.247Z,18.43
2017-09-14T04:28:56.717Z,12.63
2017-09-14T04:31:24.229Z,16.00
2017-09-14T04:33:51.716Z,17.23
2017-09-14T04:36:19.248Z,11.60
2017-09-14T04:38:46.737Z,14.63
2017-09-14T04:41:14.241Z,14.10
2017-09-14T04:43:41.729Z,16.00
2017-09-14T04:46:09.227Z,9.67
2017-09-14T04:48:36.716Z,15.73
2017-09-14T04:51:04.220Z,19.97
2017-09-14T04:53:31.714Z,11.33
2017-09-14T04:56:01.164Z,24.20
2017-09-14T04:58:28.653Z,12.27
2017-09-14T05:00:56.910Z,24.33
2017-09-14T05:03:25.226Z,14.63
2017-09-14T05:05:52.713Z,14.33
2017-09-14T05:08:20.298Z,11.03
2017-09-14T05:10:47.837Z,13.53
2017-09-14T05:13:15.345Z,13.80
2017-09-14T05:15:42.838Z,14.43
2017-09-14T05:18:10.364Z,14.70
2017-09-14T05:20:37.857Z,11.53
2017-09-14T05:23:05.381Z,11.43
2017-09-14T05:25:32.877Z,15.20
2017-09-14T05:28:02.226Z,9.30
2017-09-14T05:30:30.492Z,9.57
2017-09-14T05:32:57.986Z,9.20
2017-09-14T05:35:25.485Z,22.73
2017-09-14T05:37:52.966Z,9.00
2017-09-14T05:40:20.506Z,11.53
2017-09-14T05:42:48.049Z,9.90
2017-09-14T05:45:15.576Z,11.73
2017-09-14T05:47:43.066Z,9.23
2017-09-14T05:50:10.576Z,14.83
2017-09-14T05:52:38.085Z,12.00
2017-09-14T05:55:05.667Z,10.60
2017-09-14T05:57:33.173Z,13.33
2017-09-14T06:00:00.673Z,11.10
2017-09-14T06:02:28.272Z,8.00
2017-09-14T06:04:55.757Z,12.90
2017-09-14T06:07:23.274Z,10.97
2017-09-14T06:09:50.761Z,10.13
2017-09-14T06:12:18.281Z,12.10
2017-09-14T06:14:45.777Z,11.43
2017-09-14T06:17:13.357Z,10.20
2017-09-14T06:19:40.884Z,14.03
2017-09-14T06:22:08.428Z,10.50
2017-09-14T06:24:35.962Z,14.33
2017-09-14T06:27:03.457Z,15.73
2017-09-14T06:29:30.973Z,7.97
2017-09-14T06:31:58.457Z,12.80
2017-09-14T06:34:25.962Z,10.33
2017-09-14T06:36:53.453Z,6.70
2017-09-14T06:39:21.727Z,14.50
2017-09-14T06:41:49.981Z,6.50
2017-09-14T06:44:18.276Z,10.53
2017-09-14T06:46:45.757Z,8.27
2017-09-14T06:49:13.349Z,3.57
2017-09-14T06:51:40.852Z,2.83
2017-09-14T06:54:08.346Z,4.47
2017-09-14T06:56:35.845Z,2.83
2017-09-14T06:59:03.333Z,3.87
2017-09-14T07:01:30.846Z,3.13
2017-09-14T07:03:59.089Z,4.00
2017-09-14T07:06:26.596Z,3.10
2017-09-14T07:08:54.089Z,3.93
2017-09-14T07:11:22.368Z,4.40
2017-09-14T07:13:49.854Z,3.33
2017-09-14T07:16:17.341Z,5.10
2017-09-14T07:18:45.610Z,7.20
2017-09-14T07:21:13.100Z,3.43
2017-09-14T07:23:40.601Z,4.57
2017-09-14T07:26:08.151Z,5.70
2017-09-14T07:28:35.654Z,5.33
2017-09-14T07:31:03.258Z,5.10
2017-09-14T07:33:30.803Z,5.80
2017-09-14T07:35:58.319Z,2.67
2017-09-14T07:38:26.577Z,4.03
2017-09-14T07:40:54.070Z,7.30
2017-09-14T07:43:21.575Z,11.70
2017-09-14T07:45:49.066Z,6.03
2017-09-14T07:48:16.574Z,3.70
2017-09-14T07:50:44.059Z,4.33
2017-09-14T07:53:11.561Z,6.30
2017-09-14T07:55:39.086Z,8.00
2017-09-14T07:58:06.626Z,8.03
2017-09-14T08:00:34.129Z,8.33
2017-09-14T08:03:01.625Z,4.50
2017-09-14T08:05:29.138Z,3.80
2017-09-14T08:07:57.389Z,5.80
2017-09-14T08:10:24.990Z,7.60
2017-09-14T08:12:53.250Z,9.27
2017-09-14T08:15:20.769Z,7.80
2017-09-14T08:17:48.254Z,6.83
2017-09-14T08:20:15.757Z,4.50
2017-09-14T08:22:43.236Z,5.57
2017-09-14T08:25:10.713Z,8.97
2017-09-14T08:27:38.983Z,7.90
2017-09-14T08:30:07.234Z,5.13
2017-09-14T08:32:35.507Z,4.47
2017-09-14T08:35:03.008Z,5.73
2017-09-14T08:37:30.513Z,6.90
2017-09-14T08:39:57.992Z,8.33
2017-09-14T08:42:25.489Z,5.33
2017-09-14T08:44:53.054Z,8.40
2017-09-14T08:47:20.541Z,5.50
2017-09-14T08:49:48.047Z,8.53
2017-09-14T08:52:15.528Z,8.30
2017-09-14T08:54:43.029Z,7.53
2017-09-14T08:57:10.525Z,6.63
2017-09-14T08:59:38.797Z,7.80
2017-09-14T09:02:06.290Z,4.77
2017-09-14T09:04:33.793Z,4.30
2017-09-14T09:07:01.282Z,3.40
2017-09-14T09:09:28.789Z,6.00
2017-09-14T09:11:56.281Z,7.00
2017-09-14T09:14:24.616Z,6.70
2017-09-14T09:16:52.121Z,7.50
2017-09-14T09:19:20.365Z,4.53
2017-09-14T09:21:47.876Z,10.30
2017-09-14T09:24:15.361Z,8.90
2017-09-14T09:26:43.628Z,4.30
2017-09-14T09:29:11.112Z,3.73
2017-09-14T09:31:38.617Z,8.70
2017-09-14T09:34:06.097Z,3.73
2017-09-14T09:36:33.612Z,4.93
2017-09-14T09:39:01.113Z,5.87
2017-09-14T09:41:28.610Z,3.83
2017-09-14T09:43:56.149Z,3.50
2017-09-14T09:46:23.639Z,6.90
2017-09-14T09:48:51.255Z,4.63
2017-09-14T09:51:18.745Z,5.70
2017-09-14T09:53:46.250Z,7.30
2017-09-14T09:56:14.493Z,3.80
2017-09-14T09:58:41.997Z,4.63
2017-09-14T10:01:09.490Z,3.37
2017-09-14T10:03:37.761Z,3.77
2017-09-14T10:06:06.015Z,5.37
2017-09-14T10:08:34.305Z,4.00
2017-09-14T10:11:01.834Z,4.83
2017-09-14T10:13:29.322Z,6.80
2017-09-14T10:15:56.821Z,5.63
2017-09-14T10:18:24.312Z,2.10
2017-09-14T10:20:51.822Z,2.53
2017-09-14T10:23:19.312Z,9.67
2017-09-14T10:25:46.818Z,5.50
2017-09-14T10:28:14.301Z,7.83
2017-09-14T10:30:41.908Z,2.17
2017-09-14T10:33:09.392Z,3.83
2017-09-14T10:35:36.912Z,5.20
2017-09-14T10:38:04.402Z,4.90
2017-09-14T10:40:31.889Z,3.50
2017-09-14T10:42:59.421Z,3.60
2017-09-14T10:45:26.966Z,4.87
2017-09-14T10:47:54.469Z,4.83
2017-09-14T10:50:21.954Z,4.23
2017-09-14T10:52:50.234Z,5.27
2017-09-14T10:55:17.724Z,3.63
2017-09-14T10:57:45.237Z,2.70
2017-09-14T11:00:12.726Z,4.63
2017-09-14T11:02:40.248Z,3.30
2017-09-14T11:05:07.736Z,8.00
2017-09-14T11:07:35.315Z,4.00
2017-09-14T11:10:02.816Z,6.47
2017-09-14T11:12:31.065Z,4.47
2017-09-14T11:14:59.336Z,3.37
2017-09-14T11:17:27.594Z,5.93
2017-09-14T11:19:55.866Z,4.30
2017-09-14T11:22:23.352Z,8.80
2017-09-14T11:24:50.861Z,2.47
2017-09-14T11:27:18.353Z,5.40
2017-09-14T11:29:45.873Z,4.23
2017-09-14T11:32:13.362Z,5.63
2017-09-14T11:34:40.845Z,6.53
2017-09-14T11:37:08.345Z,4.93
2017-09-14T11:39:36.597Z,4.10
2017-09-14T11:42:04.092Z,3.97
2017-09-14T11:44:31.574Z,4.93
2017-09-14T11:46:59.073Z,4.20
2017-09-14T11:49:26.634Z,4.67
2017-09-14T11:51:55.026Z,6.47
2017-09-14T11:54:22.522Z,7.40
2017-09-14T11:56:50.033Z,7.73
2017-09-14T11:59:17.537Z,7.43
2017-09-14T12:01:45.786Z,3.10
2017-09-14T12:04:14.065Z,2.60
2017-09-14T12:06:41.726Z,5.30
2017-09-14T12:09:09.231Z,10.07
2017-09-14T12:11:36.718Z,7.00
2017-09-14T12:14:04.245Z,3.80
2017-09-14T12:16:31.800Z,3.70
2017-09-14T12:18:59.341Z,2.70
2017-09-14T12:21:26.886Z,5.63
2017-09-14T12:23:54.409Z,5.67
2017-09-14T12:26:22.692Z,7.10
2017-09-14T12:28:50.179Z,2.03
2017-09-14T12:31:17.702Z,4.23
2017-09-14T12:33:45.185Z,3.10
2017-09-14T12:36:12.690Z,4.97
2017-09-14T12:38:40.176Z,6.50
2017-09-14T12:41:08.449Z,2.63
2017-09-14T12:43:36.705Z,4.23
2017-09-14T12:46:04.973Z,3.00
2017-09-14T12:48:33.295Z,4.10
2017-09-14T12:51:00.789Z,3.10
2017-09-14T12:53:28.274Z,5.37
2017-09-14T12:55:55.789Z,4.20
2017-09-14T12:58:23.278Z,4.30
2017-09-14T13:00:51.549Z,4.50
2017-09-14T13:03:19.029Z,3.33
2017-09-14T13:05:46.518Z,3.97
2017-09-14T13:08:14.814Z,4.80
2017-09-14T13:10:42.298Z,3.83
2017-09-14T13:13:09.804Z,6.10
2017-09-14T13:15:37.289Z,2.90
2017-09-14T13:18:04.795Z,4.17
2017-09-14T13:20:32.294Z,4.93
2017-09-14T13:23:00.566Z,2.60
2017-09-14T13:25:28.133Z,2.50
2017-09-14T13:27:55.634Z,2.03
2017-09-14T13:30:23.121Z,5.53
2017-09-14T13:32:50.629Z,6.50
2017-09-14T13:35:18.914Z,5.83
2017-09-14T13:37:46.401Z,5.00
2017-09-14T13:40:13.929Z,3.97
2017-09-14T13:42:41.414Z,6.40
2017-09-14T13:45:09.685Z,3.93
2017-09-14T13:47:37.937Z,4.50
2017-09-14T13:50:06.214Z,2.20
2017-09-14T13:52:33.696Z,3.40
2017-09-14T13:55:01.305Z,5.10
2017-09-14T13:57:28.796Z,3.70
2017-09-14T13:59:56.309Z,2.90
2017-09-14T14:02:24.558Z,1.77
2017-09-14T14:04:52.164Z,1.67
2017-09-14T14:07:19.659Z,3.60
2017-09-14T14:09:47.945Z,5.07
2017-09-14T14:12:15.430Z,2.50
2017-09-14T14:14:42.921Z,1.87
2017-09-14T14:17:10.422Z,1.47
2017-09-14T14:19:37.905Z,3.53
2017-09-14T14:22:05.410Z,3.03
2017-09-14T14:24:32.903Z,6.10
2017-09-14T14:27:00.403Z,1.83
2017-09-14T14:29:27.891Z,2.20
2017-09-14T14:31:55.398Z,1.73
2017-09-14T14:34:23.684Z,3.10
2017-09-14T14:36:51.189Z,2.87
2017-09-14T14:39:18.699Z,3.13
2017-09-14T14:41:46.222Z,3.40
2017-09-14T14:44:13.714Z,1.50
2017-09-14T14:46:41.201Z,1.80
2017-09-14T14:49:08.705Z,5.13
2017-09-14T14:51:36.184Z,4.17
2017-09-14T14:54:03.689Z,4.57
2017-09-14T14:56:31.174Z,4.17
2017-09-14T14:58:59.442Z,4.93
2017-09-14T15:01:26.929Z,2.77
2017-09-14T15:03:54.431Z,4.10
2017-09-14T15:06:21.918Z,4.17
2017-09-14T15:08:49.528Z,2.50
2017-09-14T15:11:17.012Z,3.90
2017-09-14T15:13:44.625Z,3.37
2017-09-14T15:16:12.123Z,2.47
2017-09-14T15:18:39.605Z,6.10
2017-09-14T15:21:07.114Z,2.87
2017-09-14T15:23:35.374Z,2.70
2017-09-14T15:26:02.882Z,2.30
2017-09-14T15:28:30.377Z,1.77
2017-09-14T15:30:58.693Z,2.10
2017-09-14T15:33:26.224Z,3.37
2017-09-14T15:35:53.725Z,1.67
2017-09-14T15:38:22.004Z,5.43
2017-09-14T15:40:55.250Z,1.47
2017-09-14T15:43:29.230Z,3.17
2017-09-14T15:45:56.735Z,4.40
2017-09-14T15:51:31.601Z,6.63
2017-09-14T15:53:59.374Z,1.43
2017-09-14T15:56:26.873Z,2.70
2017-09-14T15:58:54.369Z,1.27
2017-09-14T16:01:21.881Z,1.50
2017-09-14T16:03:49.464Z,4.23
2017-09-14T16:06:16.945Z,2.03
2017-09-14T16:08:44.445Z,3.13
2017-09-14T16:11:11.929Z,5.33
2017-09-14T16:13:39.432Z,2.83
2017-09-14T16:16:06.929Z,3.53
2017-09-14T16:18:35.199Z,2.87
2017-09-14T16:21:03.457Z,4.63
2017-09-14T16:23:31.730Z,3.50
2017-09-14T16:25:59.218Z,4.27
2017-09-14T16:28:26.729Z,7.30
2017-09-14T16:30:54.224Z,3.00
2017-09-14T16:33:21.724Z,3.30
2017-09-14T16:35:49.212Z,4.40
2017-09-14T16:38:16.697Z,4.67
2017-09-14T16:40:44.237Z,3.10
2017-09-14T16:43:11.722Z,3.07
2017-09-14T16:45:39.225Z,2.57
2017-09-14T16:48:06.714Z,4.90
2017-09-14T16:50:34.234Z,8.90
2017-09-14T16:53:01.726Z,4.37
2017-09-14T16:55:30.027Z,2.63
2017-09-14T16:57:57.497Z,2.73
2017-09-14T17:00:24.997Z,3.80
2017-09-14T17:02:52.490Z,3.07
2017-09-14T17:05:19.998Z,3.67
2017-09-14T17:07:47.484Z,4.50
2017-09-14T17:10:14.998Z,2.83
2017-09-14T17:12:42.476Z,4.60
2017-09-14T17:15:09.993Z,3.30
2017-09-14T17:17:37.482Z,6.77
2017-09-14T17:20:05.756Z,2.43
2017-09-14T17:22:33.263Z,6.37
2017-09-14T17:25:00.745Z,2.60
2017-09-14T17:27:28.245Z,2.93
2017-09-14T17:29:55.733Z,2.70
2017-09-14T17:32:23.233Z,2.60
2017-09-14T17:34:50.718Z,2.83
2017-09-14T17:37:18.221Z,5.27
2017-09-14T17:39:45.705Z,5.43
2017-09-14T17:42:13.221Z,4.20
2017-09-14T17:44:41.476Z,2.50
2017-09-14T17:47:09.053Z,4.77
2017-09-14T17:49:36.557Z,5.40
2017-09-14T17:52:04.053Z,4.60
2017-09-14T17:54:31.564Z,2.93
2017-09-14T17:56:59.813Z,5.03
2017-09-14T17:59:27.314Z,7.50
2017-09-14T18:01:54.792Z,6.17
2017-09-14T18:04:22.297Z,6.43
2017-09-14T18:06:49.809Z,7.70
2017-09-14T18:09:17.313Z,7.03
2017-09-14T18:11:44.797Z,4.70
2017-09-14T18:14:12.306Z,4.53
2017-09-14T18:16:39.789Z,3.50
2017-09-14T18:19:07.274Z,5.83
2017-09-14T18:21:34.796Z,6.70
2017-09-14T18:24:02.319Z,7.90
2017-09-14T18:26:30.194Z,4.33
2017-09-14T18:28:57.681Z,3.30
2017-09-14T18:31:25.180Z,6.67
2017-09-14T18:33:52.666Z,3.30
2017-09-14T18:36:20.165Z,4.53
2017-09-14T18:38:47.647Z,7.00
2017-09-14T18:41:15.161Z,5.73
2017-09-14T18:43:42.649Z,6.73
2017-09-14T18:46:10.897Z,5.57
2017-09-14T18:48:38.405Z,7.20
2017-09-14T18:51:05.906Z,5.27
2017-09-14T18:53:34.198Z,5.23
2017-09-14T18:56:01.685Z,7.70
2017-09-14T18:58:29.194Z,6.70
2017-09-14T19:00:56.677Z,9.07
2017-09-14T19:03:24.948Z,4.40
2017-09-14T19:05:53.221Z,5.03
2017-09-14T19:08:20.734Z,11.97
2017-09-14T19:10:48.228Z,6.90
2017-09-14T19:13:15.729Z,9.20
2017-09-14T19:15:43.986Z,8.10
2017-09-14T19:18:11.561Z,4.03
2017-09-14T19:20:39.052Z,10.67
2017-09-14T19:23:06.577Z,7.83
2017-09-14T19:25:34.065Z,5.37
2017-09-14T19:28:02.316Z,4.57
2017-09-14T19:30:29.819Z,5.67
2017-09-14T19:32:57.306Z,6.40
2017-09-14T19:35:24.809Z,5.50
2017-09-14T19:37:52.295Z,5.40
2017-09-14T19:40:20.594Z,9.63
2017-09-14T19:42:48.081Z,11.13
2017-09-14T19:45:15.586Z,9.20
2017-09-14T19:47:43.074Z,12.37
2017-09-14T19:50:10.577Z,12.77
2017-09-14T19:52:38.061Z,10.00
2017-09-14T19:55:05.573Z,12.93
2017-09-14T19:57:33.069Z,11.23
2017-09-14T20:00:00.573Z,10.90
2017-09-14T20:02:28.082Z,10.57
2017-09-14T20:04:55.570Z,12.87
2017-09-14T20:07:23.073Z,16.53
2017-09-14T20:09:50.761Z,11.60
2017-09-14T20:12:18.265Z,17.87
2017-09-14T20:14:45.753Z,10.93
2017-09-14T20:17:13.267Z,14.83
2017-09-14T20:19:40.766Z,13.53
2017-09-14T20:22:08.272Z,13.67
2017-09-14T20:24:35.758Z,13.97
2017-09-14T20:27:03.269Z,17.50
2017-09-14T20:29:32.257Z,9.83
2017-09-14T20:32:00.525Z,8.50
2017-09-14T20:34:29.137Z,11.73
2017-09-14T20:36:56.649Z,13.47
2017-09-14T20:39:24.141Z,15.73
2017-09-14T20:41:51.630Z,10.23
2017-09-14T20:44:19.897Z,10.37
2017-09-14T20:46:47.393Z,15.90
2017-09-14T20:49:14.897Z,12.20
2017-09-14T20:51:42.390Z,11.87
2017-09-14T20:54:09.893Z,15.43
2017-09-14T20:56:37.377Z,13.70
2017-09-14T20:59:04.885Z,10.97
2017-09-14T21:01:32.368Z,8.30
2017-09-14T21:03:59.870Z,6.03
2017-09-14T21:06:27.390Z,4.87
2017-09-14T21:08:54.903Z,7.80
2017-09-14T21:11:22.390Z,14.03
2017-09-14T21:13:49.902Z,14.70
2017-09-14T21:16:17.397Z,12.63
2017-09-14T21:18:44.886Z,13.77
2017-09-14T21:21:13.157Z,10.60
2017-09-14T21:23:40.650Z,13.67
2017-09-14T21:26:08.152Z,9.00
2017-09-14T21:28:35.641Z,9.20
2017-09-14T21:31:03.141Z,8.90
2017-09-14T21:33:31.469Z,10.30
2017-09-14T21:35:58.972Z,12.63
2017-09-14T21:38:26.462Z,7.13
2017-09-14T21:40:54.742Z,10.53
2017-09-14T21:43:22.230Z,10.10
2017-09-14T21:45:49.733Z,11.80
2017-09-14T21:48:17.254Z,11.00
2017-09-14T21:50:45.497Z,8.43
2017-09-14T21:53:12.996Z,12.00
2017-09-14T21:55:40.480Z,12.93
2017-09-14T21:58:07.989Z,11.57
2017-09-14T22:00:35.476Z,11.10
2017-09-14T22:03:02.989Z,13.77
2017-09-14T22:05:30.494Z,20.67
2017-09-14T22:07:58.040Z,11.43
2017-09-14T22:10:25.524Z,14.40
2017-09-14T22:12:53.029Z,14.40
2017-09-14T22:15:20.525Z,12.70
2017-09-14T22:17:48.030Z,17.73
2017-09-14T22:20:15.521Z,14.87
2017-09-14T22:22:43.029Z,13.73
2017-09-14T22:25:10.513Z,11.37
2017-09-14T22:27:38.769Z,12.80
2017-09-14T22:30:07.045Z,12.50
2017-09-14T22:32:35.313Z,13.20
2017-09-14T22:35:02.830Z,15.60
2017-09-14T22:37:31.088Z,10.20
2017-09-14T22:39:58.593Z,15.03
2017-09-14T22:42:26.085Z,10.03
2017-09-14T22:44:54.357Z,13.47
2017-09-14T22:47:22.613Z,14.23
2017-09-14T22:49:50.129Z,14.37
2017-09-14T22:52:17.612Z,12.10
2017-09-14T22:54:45.121Z,11.00
2017-09-14T22:57:14.113Z,12.40
2017-09-14T22:59:42.396Z,13.90
2017-09-14T23:02:09.905Z,14.10
2017-09-14T23:04:37.394Z,10.70
2017-09-14T23:07:04.906Z,16.97
2017-09-14T23:09:33.153Z,9.13
2017-09-14T23:12:00.657Z,13.23
2017-09-14T23:14:28.172Z,9.90
2017-09-14T23:16:55.681Z,14.50
2017-09-14T23:19:23.954Z,13.73
2017-09-14T23:21:51.481Z,11.23
2017-09-14T23:24:18.967Z,12.53
2017-09-14T23:26:46.473Z,19.53
2017-09-14T23:29:13.961Z,9.90
2017-09-14T23:31:41.473Z,13.83
2017-09-14T23:34:09.728Z,11.37
2017-09-14T23:36:37.980Z,17.17
2017-09-14T23:39:05.485Z,14.93
2017-09-14T23:41:32.969Z,24.83
2017-09-14T23:44:01.366Z,13.80
2017-09-14T23:46:28.861Z,13.20
2017-09-14T23:48:56.366Z,10.10
2017-09-14T23:51:23.852Z,11.87
2017-09-14T23:53:51.358Z,13.50
2017-09-14T23:56:18.853Z,23.10
2017-09-14T23:58:47.142Z,11.17
